Terminal Aerodrome Forecast
Issued by NWS

Home | Current Version | Previous Version | Text Only | Print | Product List | Glossary On
Versions: 1 2 3 4 5 6 7 8 9 10 11 12 13 14 15 16 17 18 19 20 21 22 23 24 25
000
FTUS44 KTSA 021300 AAB
TAFBVO
TAF AMD
KBVO 021340Z 0214/0312 17011KT P6SM VCTS BKN050CB
      TEMPO 0215/0218 3SM TSRA BKN025 BKN050CB
     FM021800 26009KT P6SM VCTS BKN050CB
      TEMPO 0218/0220 2SM +TSRA BKN030CB
     FM022300 32011KT P6SM BKN025 OVC050
     FM030400 32005KT P6SM SKC=

USA.gov is the U.S. government's official web portal to all federal, state and local government web resources and services.